createdAt,value
2023-03-27T00:00:00.146Z,987.52
2023-03-27T00:05:00.131Z,987.58
2023-03-27T00:10:00.162Z,987.67
2023-03-27T00:15:00.178Z,987.77
2023-03-27T00:20:00.121Z,987.72
2023-03-27T00:25:00.267Z,987.84
2023-03-27T00:30:00.191Z,987.81
2023-03-27T00:35:00.121Z,987.87
2023-03-27T00:40:00.103Z,988
2023-03-27T00:45:00.125Z,988.08
2023-03-27T00:50:00.134Z,988.13
2023-03-27T00:55:00.130Z,988.14
2023-03-27T01:00:00.194Z,988.22
2023-03-27T01:05:00.151Z,988.24
2023-03-27T01:10:00.115Z,988.32
2023-03-27T01:15:00.105Z,988.41
2023-03-27T01:20:00.106Z,988.47
2023-03-27T01:25:00.117Z,988.49
2023-03-27T01:30:00.114Z,988.61
2023-03-27T01:35:01.365Z,988.73
2023-03-27T01:40:00.148Z,988.8
2023-03-27T01:45:00.128Z,989.01
2023-03-27T01:50:00.112Z,989.09
2023-03-27T01:55:00.131Z,989.19
2023-03-27T02:00:17.847Z,989.38
2023-03-27T02:05:00.150Z,989.43
2023-03-27T02:10:00.114Z,989.54
2023-03-27T02:15:22.764Z,989.63
2023-03-27T02:20:00.105Z,989.65
2023-03-27T02:25:00.138Z,989.7
2023-03-27T02:30:00.162Z,989.87
2023-03-27T02:35:00.158Z,989.92
2023-03-27T02:40:00.130Z,989.98
2023-03-27T02:45:00.145Z,990.05
2023-03-27T02:50:00.158Z,990.1
2023-03-27T02:55:00.131Z,990.3
2023-03-27T03:00:00.166Z,990.52
2023-03-27T03:05:00.121Z,990.66
2023-03-27T03:10:00.168Z,990.77
2023-03-27T03:15:00.138Z,990.75
2023-03-27T03:20:00.129Z,990.86
2023-03-27T03:25:00.177Z,991
2023-03-27T03:30:00.122Z,990.48
2023-03-27T03:35:00.114Z,990.55
2023-03-27T03:40:00.165Z,990.61
2023-03-27T03:45:00.121Z,990.74
2023-03-27T03:50:00.130Z,990.79
2023-03-27T03:55:00.134Z,990.85
2023-03-27T04:00:00.166Z,990.96
2023-03-27T04:05:00.120Z,991.07
2023-03-27T04:10:00.107Z,991.34
2023-03-27T04:15:00.122Z,991.33
2023-03-27T04:20:00.118Z,991.47
2023-03-27T04:25:00.133Z,991.63
2023-03-27T04:30:00.150Z,991.71
2023-03-27T04:35:00.101Z,991.79
2023-03-27T04:40:00.150Z,992.02
2023-03-27T04:45:00.138Z,992.05
2023-03-27T04:50:00.151Z,992.19
2023-03-27T04:55:00.127Z,992.35
2023-03-27T05:00:00.191Z,992.42
2023-03-27T05:05:00.193Z,992.47
2023-03-27T05:10:00.101Z,992.61
2023-03-27T05:15:00.117Z,992.72
2023-03-27T05:20:00.147Z,992.82
2023-03-27T05:25:00.118Z,992.95
2023-03-27T05:30:00.173Z,993.16
2023-03-27T05:35:00.127Z,993.19
2023-03-27T05:40:00.105Z,993.25
2023-03-27T05:45:00.163Z,993.39
2023-03-27T05:50:00.135Z,993.62
2023-03-27T05:55:00.123Z,993.66
2023-03-27T06:00:00.165Z,993.72
2023-03-27T06:05:00.146Z,993.7
2023-03-27T06:10:00.121Z,993.8
2023-03-27T06:15:00.112Z,993.91
2023-03-27T06:20:00.171Z,994.05
2023-03-27T06:25:00.135Z,994.16
2023-03-27T06:30:00.160Z,994.24
2023-03-27T06:35:00.130Z,994.32
2023-03-27T06:40:00.110Z,994.51
2023-03-27T06:45:00.135Z,994.56
2023-03-27T06:50:00.140Z,994.52
2023-03-27T06:55:00.152Z,994.61
2023-03-27T07:00:02.229Z,994.46
2023-03-27T07:05:04.561Z,994.71
2023-03-27T07:10:00.136Z,994.74
2023-03-27T07:15:00.105Z,994.78
2023-03-27T07:20:00.129Z,994.76
2023-03-27T07:25:00.117Z,994.87
2023-03-27T07:30:00.134Z,994.81
2023-03-27T07:35:00.109Z,994.92
2023-03-27T07:40:00.113Z,994.84
2023-03-27T07:45:01.394Z,994.88
2023-03-27T07:50:00.102Z,994.99
2023-03-27T07:55:00.103Z,995
2023-03-27T08:00:00.212Z,995.06
2023-03-27T08:05:00.176Z,995.04
2023-03-27T08:10:00.133Z,995.08
2023-03-27T08:15:00.280Z,995.25
2023-03-27T08:20:00.103Z,995.24
2023-03-27T08:25:00.142Z,995.26
2023-03-27T08:30:00.172Z,995.31
2023-03-27T08:35:00.142Z,995.28
2023-03-27T08:40:00.145Z,995.39
2023-03-27T08:45:00.121Z,995.4
2023-03-27T08:50:00.120Z,995.65
2023-03-27T08:55:00.148Z,995.74
2023-03-27T09:00:00.133Z,995.68
2023-03-27T09:05:00.139Z,995.71
2023-03-27T09:10:00.129Z,995.77
2023-03-27T09:15:00.087Z,995.68
2023-03-27T09:20:00.110Z,995.86
2023-03-27T09:25:00.146Z,995.85
2023-03-27T09:30:04.789Z,995.86
2023-03-27T09:35:00.113Z,995.98
2023-03-27T09:40:00.138Z,995.98
2023-03-27T09:45:00.145Z,996.02
2023-03-27T09:50:00.110Z,996.07
2023-03-27T09:55:00.106Z,996.14
2023-03-27T10:00:00.135Z,996.2
2023-03-27T10:05:00.195Z,996.3
2023-03-27T10:10:00.121Z,996.21
2023-03-27T10:15:01.418Z,996.22
2023-03-27T10:20:00.159Z,996.25
2023-03-27T10:25:00.136Z,996.32
2023-03-27T10:30:00.152Z,996.23
2023-03-27T10:35:00.207Z,996.27
2023-03-27T10:40:00.123Z,996.3
2023-03-27T10:45:00.170Z,996.38
2023-03-27T10:50:00.138Z,996.62
2023-03-27T10:55:00.130Z,996.6
2023-03-27T11:00:00.121Z,996.54
2023-03-27T11:05:00.171Z,996.49
2023-03-27T11:10:00.110Z,996.41
2023-03-27T11:15:00.119Z,996.37
2023-03-27T11:20:00.119Z,996.65
2023-03-27T11:25:00.149Z,996.78
2023-03-27T11:30:00.130Z,996.77
2023-03-27T11:35:01.404Z,996.68
2023-03-27T11:40:00.133Z,996.67
2023-03-27T11:45:00.138Z,996.67
2023-03-27T11:50:00.111Z,996.71
2023-03-27T11:55:00.124Z,996.8
2023-03-27T12:00:00.202Z,996.71
2023-03-27T12:05:00.147Z,996.65
2023-03-27T12:10:00.191Z,996.74
2023-03-27T12:15:00.131Z,996.8
2023-03-27T12:20:00.120Z,996.68
2023-03-27T12:25:00.376Z,996.63
2023-03-27T12:30:00.109Z,996.71
2023-03-27T12:35:00.117Z,996.6
2023-03-27T12:40:00.144Z,996.68
2023-03-27T12:45:00.155Z,996.69
2023-03-27T12:50:00.117Z,996.78
2023-03-27T12:55:00.126Z,996.74
2023-03-27T13:00:00.191Z,996.81
2023-03-27T13:05:00.150Z,996.77
2023-03-27T13:10:00.148Z,996.85
2023-03-27T13:15:00.121Z,997.17
2023-03-27T13:20:00.172Z,997.36
2023-03-27T13:25:00.140Z,997.47
2023-03-27T13:30:00.255Z,997.91
2023-03-27T13:35:00.169Z,997.97
2023-03-27T13:40:00.140Z,997.88
2023-03-27T13:45:00.153Z,998.07
2023-03-27T13:50:00.175Z,997.83
2023-03-27T13:55:00.154Z,997.74
2023-03-27T14:00:00.175Z,997.76
2023-03-27T14:05:00.183Z,997.67
2023-03-27T14:10:00.162Z,997.58
2023-03-27T14:15:00.161Z,997.66
2023-03-27T14:20:00.127Z,997.73
2023-03-27T14:25:00.192Z,997.74
2023-03-27T14:30:00.137Z,997.83
2023-03-27T14:35:00.139Z,997.73
2023-03-27T14:40:00.131Z,997.69
2023-03-27T14:45:00.120Z,997.76
2023-03-27T14:50:00.146Z,997.86
2023-03-27T14:55:00.153Z,997.92
2023-03-27T15:00:00.219Z,997.97
2023-03-27T15:05:00.129Z,998.01
2023-03-27T15:10:00.187Z,998.11
2023-03-27T15:15:00.128Z,998.03
2023-03-27T15:20:00.171Z,998.04
2023-03-27T15:25:00.165Z,998.07
2023-03-27T15:30:00.253Z,998.19
2023-03-27T15:35:00.143Z,998.19
2023-03-27T15:40:00.296Z,998.26
2023-03-27T15:45:00.217Z,998.54
2023-03-27T15:50:00.123Z,998.55
2023-03-27T15:55:00.174Z,998.71
2023-03-27T16:00:00.143Z,998.65
2023-03-27T16:05:00.111Z,998.65
2023-03-27T16:10:00.125Z,998.65
2023-03-27T16:15:00.140Z,998.8
2023-03-27T16:20:00.109Z,998.95
2023-03-27T16:25:00.129Z,998.89
2023-03-27T16:30:00.149Z,998.93
2023-03-27T16:35:00.108Z,999
2023-03-27T16:40:00.187Z,998.95
2023-03-27T16:45:00.134Z,999.02
2023-03-27T16:55:00.115Z,999.19
2023-03-27T17:00:00.128Z,999.3
2023-03-27T17:05:00.173Z,999.39
2023-03-27T17:10:00.154Z,999.6
2023-03-27T17:15:00.202Z,999.64
2023-03-27T17:20:00.110Z,999.68
2023-03-27T17:25:00.185Z,999.77
2023-03-27T17:30:00.164Z,999.79
2023-03-27T17:35:00.092Z,999.79
2023-03-27T17:40:00.144Z,999.94
2023-03-27T17:45:00.160Z,999.92
2023-03-27T17:50:00.123Z,999.88
2023-03-27T17:55:00.181Z,999.86
2023-03-27T18:00:00.138Z,999.95
2023-03-27T18:05:00.119Z,999.98
2023-03-27T18:10:00.162Z,1000.1
2023-03-27T18:15:00.128Z,1000.09
2023-03-27T18:20:00.125Z,1000.19
2023-03-27T18:25:00.155Z,1000.27
2023-03-27T18:30:00.109Z,1000.23
2023-03-27T18:35:00.144Z,1000.34
2023-03-27T18:40:00.118Z,1000.37
2023-03-27T18:50:00.164Z,1000.45
2023-03-27T18:55:00.103Z,1000.46
2023-03-27T19:00:00.104Z,1001.16
2023-03-27T19:05:00.100Z,1000.58
2023-03-27T19:10:00.146Z,1000.49
2023-03-27T19:15:06.730Z,1000.57
2023-03-27T19:20:00.128Z,1000.57
2023-03-27T19:25:00.107Z,1000.55
2023-03-27T19:30:00.178Z,1000.5
2023-03-27T19:35:00.126Z,1000.53
2023-03-27T19:40:00.148Z,1000.49
2023-03-27T19:45:00.088Z,1000.52
2023-03-27T19:50:00.148Z,1000.58
2023-03-27T19:55:00.131Z,1000.56
2023-03-27T20:00:00.121Z,1000.61
2023-03-27T20:05:00.095Z,1000.52
2023-03-27T20:10:00.160Z,1000.55
2023-03-27T20:15:10.409Z,1000.57
2023-03-27T20:20:00.173Z,1000.58
2023-03-27T20:25:00.117Z,1000.61
2023-03-27T20:30:00.121Z,1001.26
2023-03-27T20:35:03.330Z,1001.25
2023-03-27T20:40:00.110Z,1001.25
2023-03-27T20:45:00.117Z,1001.22
2023-03-27T20:50:00.159Z,1001.21
2023-03-27T20:55:00.098Z,1001.24
2023-03-27T21:00:00.158Z,1001.17
2023-03-27T21:05:00.121Z,1001.25
2023-03-27T21:10:00.187Z,1001.29
2023-03-27T21:15:00.112Z,1001.13
2023-03-27T21:20:00.153Z,1001.32
2023-03-27T21:25:00.126Z,1001.24
2023-03-27T21:30:00.154Z,1001.29
2023-03-27T21:35:00.105Z,1001.15
2023-03-27T21:40:00.163Z,1001.17
2023-03-27T21:45:00.154Z,1001.15
2023-03-27T21:50:00.187Z,1001.2
2023-03-27T21:55:03.128Z,1001.14
2023-03-27T22:00:00.175Z,1001.21
2023-03-27T22:05:00.296Z,1001.22
2023-03-27T22:10:00.174Z,1001.24
2023-03-27T22:15:00.132Z,1001.22
2023-03-27T22:20:00.136Z,1001.22
2023-03-27T22:25:00.164Z,1001.22
2023-03-27T22:30:00.162Z,1001.21
2023-03-27T22:35:00.126Z,1001.24
2023-03-27T22:40:00.168Z,1001.22
2023-03-27T22:45:00.117Z,1001.18
2023-03-27T22:50:00.161Z,1001.24
2023-03-27T22:55:00.134Z,1001.32
2023-03-27T23:00:00.157Z,1001.34
2023-03-27T23:05:00.134Z,1001.35
2023-03-27T23:10:00.121Z,1001.36
2023-03-27T23:15:00.133Z,1001.34
2023-03-27T23:20:00.131Z,1001.46
2023-03-27T23:25:00.134Z,1001.47
2023-03-27T23:30:00.271Z,1001.48
2023-03-27T23:35:00.104Z,1001.47
2023-03-27T23:40:00.121Z,1001.5
2023-03-27T23:45:00.114Z,1001.49
2023-03-27T23:50:00.146Z,1001.47
2023-03-27T23:55:00.132Z,1001.59
